createdAt,value
2019-05-23T00:01:12.540Z,10.74
2019-05-23T00:04:04.141Z,10.73
2019-05-23T00:06:34.734Z,10.70
2019-05-23T00:09:05.952Z,10.68
2019-05-23T00:14:55.606Z,10.60
2019-05-23T00:17:45.795Z,10.56
2019-05-23T00:23:25.095Z,10.49
2019-05-23T00:25:55.228Z,10.46
2019-05-23T00:28:24.476Z,10.43
2019-05-23T00:31:01.139Z,10.39
2019-05-23T00:33:32.457Z,10.38
2019-05-23T00:36:02.149Z,10.36
2019-05-23T00:38:32.902Z,10.32
2019-05-23T00:43:52.766Z,10.29
2019-05-23T00:46:22.948Z,10.27
2019-05-23T00:48:53.060Z,10.25
2019-05-23T00:51:23.389Z,10.21
2019-05-23T00:53:52.818Z,10.18
2019-05-23T00:56:23.462Z,10.15
2019-05-23T00:58:52.612Z,10.13
2019-05-23T01:01:22.623Z,10.09
2019-05-23T01:03:52.867Z,10.07
2019-05-23T01:06:22.099Z,10.05
2019-05-23T01:08:53.010Z,10.02
2019-05-23T01:11:23.215Z,9.99
2019-05-23T01:13:52.987Z,9.97
2019-05-23T01:16:24.172Z,9.93
2019-05-23T01:18:53.849Z,9.92
2019-05-23T01:21:41.167Z,9.88
2019-05-23T01:24:18.586Z,9.87
2019-05-23T01:26:48.215Z,9.83
2019-05-23T01:29:19.454Z,9.81
2019-05-23T01:31:50.221Z,9.76
2019-05-23T01:34:19.426Z,9.73
2019-05-23T01:36:48.857Z,9.71
2019-05-23T01:39:19.066Z,9.68
2019-05-23T01:41:48.200Z,9.64
2019-05-23T01:44:17.840Z,9.62
2019-05-23T01:49:37.241Z,9.57
2019-05-23T01:54:57.140Z,9.54
2019-05-23T01:57:26.371Z,9.52
2019-05-23T02:00:08.941Z,9.50
2019-05-23T02:02:49.169Z,9.47
2019-05-23T02:05:18.831Z,9.43
2019-05-23T02:07:48.500Z,9.40
2019-05-23T02:10:19.542Z,9.38
2019-05-23T02:12:50.031Z,9.36
2019-05-23T02:15:19.560Z,9.33
2019-05-23T02:17:48.948Z,9.30
2019-05-23T02:20:20.269Z,9.28
2019-05-23T02:22:50.247Z,9.24
2019-05-23T02:25:39.843Z,9.21
2019-05-23T02:28:10.191Z,9.19
2019-05-23T02:30:40.403Z,9.17
2019-05-23T02:33:29.902Z,9.16
2019-05-23T02:35:59.432Z,9.11
2019-05-23T02:39:05.534Z,9.09
2019-05-23T02:44:34.575Z,9.06
2019-05-23T02:47:16.818Z,9.05
2019-05-23T02:49:48.558Z,9.03
2019-05-23T02:52:42.336Z,9.02
2019-05-23T02:55:35.060Z,9.02
2019-05-23T02:58:28.778Z,8.99
2019-05-23T03:01:27.599Z,8.97
2019-05-23T03:03:59.791Z,8.96
2019-05-23T03:06:29.087Z,8.95
2019-05-23T03:08:59.532Z,8.92
2019-05-23T03:11:45.692Z,8.90
2019-05-23T03:14:19.191Z,8.90
2019-05-23T03:16:52.225Z,8.90
2019-05-23T03:19:28.855Z,8.88
2019-05-23T03:22:03.551Z,8.87
2019-05-23T03:24:33.583Z,8.88
2019-05-23T03:27:10.096Z,8.86
2019-05-23T03:29:41.013Z,8.82
2019-05-23T03:32:15.747Z,8.81
2019-05-23T03:34:45.735Z,8.78
2019-05-23T03:37:16.049Z,8.78
2019-05-23T03:39:45.352Z,8.77
2019-05-23T03:42:15.137Z,8.77
2019-05-23T03:44:46.982Z,8.78
2019-05-23T03:47:18.326Z,8.79
2019-05-23T03:49:48.247Z,8.80
2019-05-23T03:52:19.087Z,8.80
2019-05-23T03:57:39.331Z,8.80
2019-05-23T04:00:11.729Z,8.80
2019-05-23T04:02:42.534Z,8.81
2019-05-23T04:05:13.078Z,8.82
2019-05-23T04:07:42.714Z,8.81
2019-05-23T04:10:12.355Z,8.82
2019-05-23T04:12:41.557Z,8.81
2019-05-23T04:15:12.746Z,8.81
2019-05-23T04:17:41.862Z,8.81
2019-05-23T04:20:11.504Z,8.84
2019-05-23T04:22:40.713Z,8.86
2019-05-23T04:25:10.026Z,8.87
2019-05-23T04:27:39.361Z,8.90
2019-05-23T04:30:08.904Z,8.93
2019-05-23T04:32:38.206Z,6.40
2019-05-23T04:35:08.377Z,8.99
2019-05-23T04:37:37.590Z,9.02
2019-05-23T04:40:07.072Z,9.04
2019-05-23T04:42:36.419Z,9.02
2019-05-23T04:45:06.540Z,8.97
2019-05-23T04:50:26.559Z,8.95
2019-05-23T04:52:55.985Z,9.01
2019-05-23T04:55:45.763Z,9.05
2019-05-23T04:58:14.878Z,9.10
2019-05-23T05:00:44.703Z,9.18
2019-05-23T05:03:17.833Z,9.23
2019-05-23T05:05:46.854Z,9.29
2019-05-23T05:08:16.425Z,9.36
2019-05-23T05:10:47.362Z,9.41
2019-05-23T05:13:16.981Z,9.48
2019-05-23T05:15:46.285Z,9.53
2019-05-23T05:18:16.315Z,9.57
2019-05-23T05:20:45.818Z,9.61
2019-05-23T05:23:15.073Z,9.65
2019-05-23T05:25:44.207Z,9.66
2019-05-23T05:28:13.422Z,9.69
2019-05-23T05:30:42.719Z,9.74
2019-05-23T05:33:12.127Z,9.80
2019-05-23T05:35:41.384Z,9.87
2019-05-23T05:38:10.528Z,9.93
2019-05-23T05:40:39.695Z,10.00
2019-05-23T05:43:09.826Z,9.50
2019-05-23T05:45:39.117Z,10.15
2019-05-23T05:48:08.945Z,10.21
2019-05-23T05:50:38.305Z,10.28
2019-05-23T05:53:09.497Z,10.34
2019-05-23T05:55:38.739Z,10.43
2019-05-23T05:58:07.919Z,10.52
2019-05-23T06:00:52.211Z,10.59
2019-05-23T06:03:21.441Z,10.67
2019-05-23T06:06:08.150Z,10.69
2019-05-23T06:08:39.900Z,10.76
2019-05-23T06:11:09.710Z,10.82
2019-05-23T06:13:38.841Z,10.90
2019-05-23T06:16:08.057Z,10.98
2019-05-23T06:18:37.272Z,11.09
2019-05-23T06:21:07.641Z,11.18
2019-05-23T06:23:36.833Z,11.27
2019-05-23T06:26:05.991Z,11.39
2019-05-23T06:28:35.916Z,11.50
2019-05-23T06:31:05.056Z,11.60
2019-05-23T06:33:34.218Z,11.73
2019-05-23T06:36:03.817Z,11.85
2019-05-23T06:38:33.522Z,11.93
2019-05-23T06:41:04.147Z,12.02
2019-05-23T06:43:35.463Z,12.06
2019-05-23T06:46:05.022Z,12.16
2019-05-23T06:48:45.847Z,12.23
2019-05-23T06:51:13.849Z,12.30
2019-05-23T06:53:43.444Z,10.56
2019-05-23T06:56:14.094Z,12.47
2019-05-23T06:58:43.441Z,12.60
2019-05-23T07:01:12.706Z,12.73
2019-05-23T07:03:43.597Z,12.86
2019-05-23T07:06:16.926Z,12.88
2019-05-23T07:08:46.428Z,13.07
2019-05-23T07:11:17.738Z,13.25
2019-05-23T07:13:47.459Z,13.33
2019-05-23T07:16:16.666Z,13.43
2019-05-23T07:18:45.882Z,12.34
2019-05-23T07:21:15.303Z,13.65
2019-05-23T07:23:44.431Z,13.77
2019-05-23T07:26:14.352Z,13.90
2019-05-23T07:28:43.560Z,14.02
2019-05-23T07:31:13.376Z,14.23
2019-05-23T07:34:00.489Z,14.37
2019-05-23T07:36:14.217Z,14.51
2019-05-23T07:38:43.849Z,14.62
2019-05-23T07:41:13.357Z,14.72
2019-05-23T07:43:42.758Z,14.84
2019-05-23T07:46:11.885Z,15.00
2019-05-23T07:48:41.548Z,15.18
2019-05-23T07:51:10.715Z,15.32
2019-05-23T07:54:08.819Z,15.55
2019-05-23T07:56:38.429Z,15.82
2019-05-23T07:59:07.683Z,16.15
2019-05-23T08:01:39.320Z,16.41
2019-05-23T08:04:20.414Z,16.64
2019-05-23T08:06:39.475Z,16.78
2019-05-23T08:09:09.576Z,16.82
2019-05-23T08:11:38.942Z,16.87
2019-05-23T08:14:11.885Z,17.07
2019-05-23T08:16:39.261Z,17.30
2019-05-23T08:19:09.000Z,17.56
2019-05-23T08:21:38.151Z,17.80
2019-05-23T08:24:08.260Z,17.86
2019-05-23T08:26:37.568Z,18.03
2019-05-23T08:29:25.846Z,18.25
2019-05-23T08:31:38.499Z,18.35
2019-05-23T08:34:08.990Z,18.58
2019-05-23T08:36:38.638Z,18.72
2019-05-23T08:39:08.654Z,18.85
2019-05-23T08:41:37.949Z,19.17
2019-05-23T08:44:11.283Z,19.52
2019-05-23T08:46:38.227Z,19.81
2019-05-23T08:49:08.952Z,19.91
2019-05-23T08:51:38.038Z,19.99
2019-05-23T08:54:07.840Z,20.10
2019-05-23T08:56:37.256Z,20.36
2019-05-23T08:59:07.536Z,20.56
2019-05-23T09:01:37.074Z,20.59
2019-05-23T09:04:06.547Z,20.48
2019-05-23T09:06:35.640Z,20.38
2019-05-23T09:09:27.803Z,20.45
2019-05-23T09:11:40.243Z,20.48
2019-05-23T09:14:09.793Z,20.51
2019-05-23T09:16:39.230Z,20.75
2019-05-23T09:19:08.444Z,20.86
2019-05-23T09:21:37.694Z,21.02
2019-05-23T09:24:06.953Z,21.19
2019-05-23T09:26:36.425Z,21.02
2019-05-23T09:29:06.334Z,20.87
2019-05-23T09:31:35.685Z,21.01
2019-05-23T09:34:04.939Z,21.04
2019-05-23T09:36:34.169Z,21.02
2019-05-23T09:39:05.909Z,21.10
2019-05-23T09:41:35.160Z,21.34
2019-05-23T09:44:04.938Z,21.33
2019-05-23T09:46:34.039Z,21.42
2019-05-23T09:49:03.239Z,21.78
2019-05-23T09:51:32.358Z,22.10
2019-05-23T09:54:01.604Z,22.29
2019-05-23T09:56:31.397Z,22.32
2019-05-23T09:59:00.548Z,22.46
2019-05-23T10:01:29.851Z,22.58
2019-05-23T10:03:58.983Z,22.39
2019-05-23T10:06:28.131Z,22.44
2019-05-23T10:08:57.375Z,22.46
2019-05-23T10:11:26.632Z,22.57
2019-05-23T10:13:55.875Z,22.69
2019-05-23T10:16:25.220Z,22.72
2019-05-23T10:18:54.377Z,22.70
2019-05-23T10:21:23.484Z,22.71
2019-05-23T10:23:52.707Z,22.80
2019-05-23T10:26:21.859Z,22.73
2019-05-23T10:28:50.959Z,22.69
2019-05-23T10:31:20.405Z,22.73
2019-05-23T10:33:49.517Z,22.79
2019-05-23T10:36:18.755Z,22.81
2019-05-23T10:38:48.037Z,22.73
2019-05-23T10:41:17.338Z,22.68
2019-05-23T10:43:46.599Z,22.78
2019-05-23T10:46:15.875Z,22.79
2019-05-23T10:48:45.026Z,22.65
2019-05-23T10:51:14.182Z,22.49
2019-05-23T10:53:43.327Z,22.55
2019-05-23T10:56:12.875Z,22.71
2019-05-23T10:58:42.220Z,22.82
2019-05-23T11:01:12.142Z,22.91
2019-05-23T11:03:41.473Z,22.88
2019-05-23T11:06:16.215Z,22.78
2019-05-23T11:08:42.148Z,22.71
2019-05-23T11:11:14.516Z,22.64
2019-05-23T11:13:44.086Z,22.61
2019-05-23T11:16:13.559Z,22.62
2019-05-23T11:18:42.973Z,22.60
2019-05-23T11:21:12.109Z,22.61
2019-05-23T11:23:44.898Z,22.75
2019-05-23T11:26:14.075Z,22.87
2019-05-23T11:28:43.407Z,22.83
2019-05-23T11:31:14.311Z,22.54
2019-05-23T11:33:43.552Z,22.27
2019-05-23T11:36:13.053Z,22.17
2019-05-23T11:38:42.472Z,22.11
2019-05-23T11:41:12.002Z,22.11
2019-05-23T11:43:42.013Z,22.26
2019-05-23T11:46:19.293Z,22.43
2019-05-23T11:48:48.512Z,22.58
2019-05-23T11:51:19.035Z,22.73
2019-05-23T11:54:05.872Z,22.74
2019-05-23T11:56:19.059Z,22.73
2019-05-23T11:58:48.238Z,22.63
2019-05-23T12:01:37.628Z,22.62
2019-05-23T12:04:11.294Z,22.55
2019-05-23T12:06:55.901Z,22.34
2019-05-23T12:09:22.815Z,22.28
2019-05-23T12:11:51.917Z,22.44
2019-05-23T12:14:21.069Z,22.55
2019-05-23T12:16:50.941Z,22.68
2019-05-23T12:19:20.605Z,22.80
2019-05-23T12:21:49.744Z,22.88
2019-05-23T12:24:19.093Z,22.91
2019-05-23T12:26:48.221Z,22.93
2019-05-23T12:29:17.359Z,22.78
2019-05-23T12:31:49.496Z,22.53
2019-05-23T12:34:17.478Z,22.53
2019-05-23T12:36:46.756Z,22.59
2019-05-23T12:39:15.928Z,22.87
2019-05-23T12:41:45.063Z,23.18
2019-05-23T12:44:17.532Z,23.31
2019-05-23T12:46:45.658Z,23.48
2019-05-23T12:49:21.382Z,23.59
2019-05-23T12:51:51.148Z,23.52
2019-05-23T12:54:20.569Z,23.68
2019-05-23T12:56:49.808Z,23.69
2019-05-23T12:59:19.092Z,23.78
2019-05-23T13:01:50.481Z,23.94
2019-05-23T13:04:19.692Z,24.11
2019-05-23T13:06:48.952Z,24.08
2019-05-23T13:09:18.339Z,23.71
2019-05-23T13:11:47.771Z,23.41
2019-05-23T13:14:17.092Z,23.39
2019-05-23T13:16:46.315Z,23.27
2019-05-23T13:19:15.945Z,23.26
2019-05-23T13:21:45.233Z,23.47
2019-05-23T13:24:14.391Z,23.69
2019-05-23T13:26:43.562Z,23.92
2019-05-23T13:29:12.724Z,24.11
2019-05-23T13:31:41.913Z,24.20
2019-05-23T13:34:11.071Z,24.34
2019-05-23T13:36:40.349Z,24.26
2019-05-23T13:39:10.486Z,23.95
2019-05-23T13:41:39.887Z,23.71
2019-05-23T13:44:09.373Z,23.60
2019-05-23T13:46:38.601Z,23.52
2019-05-23T13:49:07.772Z,23.53
2019-05-23T13:51:36.891Z,23.68
2019-05-23T13:54:06.157Z,23.86
2019-05-23T13:56:35.340Z,23.95
2019-05-23T13:59:04.661Z,23.95
2019-05-23T14:01:33.814Z,24.03
2019-05-23T14:04:03.049Z,24.01
2019-05-23T14:06:32.192Z,23.98
2019-05-23T14:09:01.325Z,24.01
2019-05-23T14:11:30.441Z,24.16
2019-05-23T14:14:02.187Z,24.22
2019-05-23T14:16:32.327Z,24.38
2019-05-23T14:19:01.467Z,23.32
2019-05-23T14:21:33.970Z,24.54
2019-05-23T14:24:03.121Z,24.57
2019-05-23T14:26:37.744Z,24.64
2019-05-23T14:29:07.087Z,24.64
2019-05-23T14:31:42.991Z,23.62
2019-05-23T14:34:14.839Z,23.66
2019-05-23T14:36:54.419Z,24.77
2019-05-23T14:39:41.244Z,24.74
2019-05-23T14:42:25.781Z,24.67
2019-05-23T14:44:54.926Z,24.68
2019-05-23T14:47:47.200Z,24.63
2019-05-23T14:50:47.534Z,24.51
2019-05-23T14:53:19.522Z,24.45
2019-05-23T14:55:50.270Z,24.38
2019-05-23T14:58:19.711Z,24.39
2019-05-23T15:00:49.873Z,23.36
2019-05-23T15:03:19.302Z,24.37
2019-05-23T15:05:48.453Z,24.44
2019-05-23T15:08:17.564Z,24.40
2019-05-23T15:10:47.042Z,24.31
2019-05-23T15:13:16.298Z,24.27
2019-05-23T15:15:45.434Z,24.24
2019-05-23T15:18:14.581Z,24.26
2019-05-23T15:20:43.718Z,24.14
2019-05-23T15:23:12.855Z,24.07
2019-05-23T15:25:42.165Z,24.09
2019-05-23T15:28:12.330Z,24.04
2019-05-23T15:30:41.479Z,23.97
2019-05-23T15:33:10.703Z,23.89
2019-05-23T15:35:40.026Z,23.92
2019-05-23T15:38:09.356Z,22.79
2019-05-23T15:40:38.534Z,23.86
2019-05-23T15:43:09.916Z,23.80
2019-05-23T15:45:38.622Z,23.77
2019-05-23T15:48:07.741Z,23.74
2019-05-23T15:50:42.274Z,23.66
2019-05-23T15:53:33.105Z,23.58
2019-05-23T15:56:27.590Z,23.56
2019-05-23T15:59:07.380Z,23.62
2019-05-23T16:01:44.169Z,23.65
2019-05-23T16:04:15.157Z,23.60
2019-05-23T16:06:44.774Z,23.54
2019-05-23T16:09:28.829Z,23.54
2019-05-23T16:11:45.481Z,23.55
2019-05-23T16:14:15.436Z,23.54
2019-05-23T16:16:44.583Z,23.48
2019-05-23T16:19:13.788Z,23.36
2019-05-23T16:21:43.155Z,23.15
2019-05-23T16:24:12.490Z,23.06
2019-05-23T16:26:41.793Z,22.89
2019-05-23T16:29:12.814Z,22.84
2019-05-23T16:31:42.571Z,22.88
2019-05-23T16:34:11.732Z,22.86
2019-05-23T16:36:40.863Z,22.84
2019-05-23T16:39:10.141Z,22.89
2019-05-23T16:41:39.383Z,22.91
2019-05-23T16:44:08.597Z,22.96
2019-05-23T16:46:37.743Z,22.99
2019-05-23T16:49:06.923Z,22.97
2019-05-23T16:51:36.069Z,22.94
2019-05-23T16:54:05.868Z,22.90
2019-05-23T16:56:43.059Z,22.90
2019-05-23T16:59:27.613Z,22.86
2019-05-23T17:02:15.749Z,22.78
2019-05-23T17:05:10.351Z,22.71
2019-05-23T17:08:03.979Z,22.69
2019-05-23T17:11:00.211Z,22.70
2019-05-23T17:13:36.604Z,22.69
2019-05-23T17:16:30.974Z,22.70
2019-05-23T17:19:12.159Z,22.68
2019-05-23T17:21:50.774Z,22.66
2019-05-23T17:25:26.383Z,22.65
2019-05-23T17:27:27.331Z,22.62
2019-05-23T17:30:14.751Z,22.59
2019-05-23T17:32:43.934Z,22.54
2019-05-23T17:35:13.094Z,22.52
2019-05-23T17:37:42.253Z,22.52
2019-05-23T17:40:24.372Z,22.52
2019-05-23T17:42:42.684Z,22.50
2019-05-23T17:45:14.223Z,22.46
2019-05-23T17:47:43.106Z,22.43
2019-05-23T17:50:12.298Z,22.41
2019-05-23T17:52:41.505Z,22.34
2019-05-23T17:55:10.781Z,22.30
2019-05-23T17:57:39.972Z,22.26
2019-05-23T18:00:09.388Z,22.19
2019-05-23T18:02:38.731Z,21.96
2019-05-23T18:05:09.034Z,22.07
2019-05-23T18:07:39.159Z,21.99
2019-05-23T18:10:08.437Z,21.93
2019-05-23T18:12:37.773Z,21.87
2019-05-23T18:15:09.026Z,21.78
2019-05-23T18:17:38.601Z,21.72
2019-05-23T18:20:09.567Z,21.63
2019-05-23T18:22:39.168Z,21.56
2019-05-23T18:25:10.074Z,21.49
2019-05-23T18:27:39.979Z,21.42
2019-05-23T18:30:13.456Z,21.35
2019-05-23T18:32:43.130Z,21.28
2019-05-23T18:35:14.403Z,21.21
2019-05-23T18:37:43.580Z,21.10
2019-05-23T18:40:13.076Z,20.95
2019-05-23T18:42:42.786Z,20.79
2019-05-23T18:45:11.936Z,20.64
2019-05-23T18:47:42.807Z,20.51
2019-05-23T18:50:13.307Z,20.44
2019-05-23T18:52:42.485Z,20.35
2019-05-23T18:55:11.989Z,20.20
2019-05-23T18:57:41.295Z,20.04
2019-05-23T19:00:11.905Z,19.93
2019-05-23T19:02:41.194Z,19.85
2019-05-23T19:05:11.950Z,19.80
2019-05-23T19:07:41.654Z,19.73
2019-05-23T19:10:11.461Z,19.66
2019-05-23T19:12:42.353Z,19.57
2019-05-23T19:15:12.924Z,19.48
2019-05-23T19:17:42.289Z,19.41
2019-05-23T19:20:12.248Z,19.32
2019-05-23T19:22:41.430Z,19.19
2019-05-23T19:25:11.971Z,19.09
2019-05-23T19:27:41.155Z,19.00
2019-05-23T19:30:11.739Z,18.89
2019-05-23T19:32:41.117Z,18.76
2019-05-23T19:35:10.650Z,18.66
2019-05-23T19:37:41.597Z,18.55
2019-05-23T19:40:12.513Z,18.49
2019-05-23T19:42:41.654Z,18.42
2019-05-23T19:45:10.966Z,18.35
2019-05-23T19:47:40.126Z,18.30
2019-05-23T19:50:09.830Z,18.27
2019-05-23T19:52:38.998Z,18.21
2019-05-23T19:55:09.096Z,18.15
2019-05-23T19:57:38.448Z,18.06
2019-05-23T20:00:11.896Z,17.95
2019-05-23T20:02:48.903Z,17.84
2019-05-23T20:05:22.558Z,17.74
2019-05-23T20:07:51.727Z,17.69
2019-05-23T20:10:21.459Z,17.63
2019-05-23T20:12:50.950Z,17.55
2019-05-23T20:15:20.433Z,17.48
2019-05-23T20:17:51.832Z,17.42
2019-05-23T20:20:20.598Z,17.37
2019-05-23T20:22:49.945Z,17.33
2019-05-23T20:25:20.573Z,17.29
2019-05-23T20:27:49.726Z,17.21
2019-05-23T20:31:02.419Z,17.15
2019-05-23T20:33:31.626Z,17.07
2019-05-23T20:36:02.878Z,16.96
2019-05-23T20:38:32.063Z,16.87
2019-05-23T20:41:01.232Z,16.81
2019-05-23T20:43:30.377Z,16.77
2019-05-23T20:45:59.508Z,16.74
2019-05-23T20:48:29.140Z,16.69
2019-05-23T20:50:58.413Z,16.64
2019-05-23T20:53:27.515Z,16.58
2019-05-23T20:55:56.679Z,16.53
2019-05-23T20:58:25.940Z,16.48
2019-05-23T21:01:16.042Z,16.44
2019-05-23T21:03:45.121Z,16.38
2019-05-23T21:06:14.906Z,16.31
2019-05-23T21:08:44.275Z,16.24
2019-05-23T21:11:13.425Z,16.18
2019-05-23T21:13:42.595Z,16.13
2019-05-23T21:16:11.735Z,16.09
2019-05-23T21:18:40.922Z,16.06
2019-05-23T21:21:10.355Z,16.02
2019-05-23T21:23:39.489Z,15.98
2019-05-23T21:26:08.655Z,15.93
2019-05-23T21:28:37.807Z,15.88
2019-05-23T21:31:19.916Z,15.81
2019-05-23T21:33:49.150Z,15.76
2019-05-23T21:36:18.486Z,15.72
2019-05-23T21:38:47.845Z,15.67
2019-05-23T21:41:17.091Z,15.62
2019-05-23T21:43:47.927Z,15.58
2019-05-23T21:46:17.150Z,15.51
2019-05-23T21:48:46.326Z,15.47
2019-05-23T21:51:15.587Z,15.44
2019-05-23T21:53:44.848Z,15.07
2019-05-23T21:56:14.021Z,15.39
2019-05-23T21:58:43.318Z,15.36
2019-05-23T22:01:31.822Z,15.33
2019-05-23T22:04:16.843Z,15.29
2019-05-23T22:06:48.109Z,15.21
2019-05-23T22:09:17.360Z,15.14
2019-05-23T22:11:46.744Z,15.06
2019-05-23T22:14:15.933Z,14.57
2019-05-23T22:16:45.127Z,14.94
2019-05-23T22:19:17.439Z,14.89
2019-05-23T22:21:46.572Z,14.83
2019-05-23T22:24:16.012Z,14.81
2019-05-23T22:26:45.233Z,14.78
2019-05-23T22:29:14.700Z,14.75
2019-05-23T22:31:43.921Z,14.70
2019-05-23T22:34:30.840Z,14.64
2019-05-23T22:37:01.364Z,14.59
2019-05-23T22:39:30.500Z,14.54
2019-05-23T22:41:59.651Z,14.48
2019-05-23T22:44:28.819Z,14.41
2019-05-23T22:46:58.026Z,14.37
2019-05-23T22:49:27.164Z,14.36
2019-05-23T22:51:56.308Z,14.33
2019-05-23T22:54:25.398Z,14.28
2019-05-23T22:56:54.545Z,14.26
2019-05-23T22:59:23.693Z,14.23
2019-05-23T23:01:52.825Z,14.19
2019-05-23T23:04:22.151Z,14.14
2019-05-23T23:06:51.320Z,14.11
2019-05-23T23:09:20.626Z,14.09
2019-05-23T23:11:49.730Z,14.07
2019-05-23T23:14:18.982Z,14.05
2019-05-23T23:16:48.784Z,14.00
2019-05-23T23:19:17.940Z,13.97
2019-05-23T23:21:47.096Z,13.96
2019-05-23T23:24:16.254Z,13.92
2019-05-23T23:26:45.398Z,13.90
2019-05-23T23:29:14.544Z,13.87
2019-05-23T23:31:43.710Z,13.84
2019-05-23T23:34:12.944Z,13.80
2019-05-23T23:36:42.074Z,13.74
2019-05-23T23:39:11.258Z,13.66
2019-05-23T23:41:40.447Z,13.61
2019-05-23T23:44:11.596Z,13.60
2019-05-23T23:46:58.455Z,13.56
2019-05-23T23:49:45.318Z,13.50
2019-05-23T23:52:34.416Z,13.45
2019-05-23T23:55:21.370Z,13.42
2019-05-23T23:58:01.876Z,13.36
